Time;durP1;ratioP1;P1;durP2;ratioP2;P2;SDS_P1;SDS_P2;PMS_P1;PMS_P2;Temp;Humidity;BMP_temperature;BMP_pressure;BME280_temperature;BME280_humidity;BME280_pressure;Samples;Min_cycle;Max_cycle;Signal;HPM_P1;HPM_P2
2022/02/21 00:02:05;;;;;;;1.33;1.23;;;10.40;97.30;;;;;;5055017;28;20206;-86
2022/02/21 00:04:30;;;;;;;2.33;0.93;;;10.40;97.30;;;;;;5053588;28;20290;-86
2022/02/21 00:06:56;;;;;;;1.30;1.10;;;10.40;97.30;;;;;;5052835;28;20497;-87
2022/02/21 00:09:21;;;;;;;0.87;0.80;;;10.40;97.30;;;;;;5053969;28;20184;-88
2022/02/21 00:11:47;;;;;;;2.50;1.00;;;10.50;97.30;;;;;;5052940;28;20553;-87
2022/02/21 00:14:12;;;;;;;2.20;1.27;;;10.60;97.30;;;;;;5052626;28;20190;-87
2022/02/21 00:16:38;;;;;;;0.80;0.80;;;10.60;97.30;;;;;;5052803;28;20188;-87
2022/02/21 00:19:03;;;;;;;0.90;0.80;;;10.60;97.30;;;;;;5052912;28;20206;-87
2022/02/21 00:21:29;;;;;;;1.67;1.03;;;10.60;97.30;;;;;;5052766;28;20204;-87
2022/02/21 00:23:55;;;;;;;1.00;0.90;;;10.60;97.30;;;;;;5052561;28;20610;-87
2022/02/21 00:26:21;;;;;;;1.63;0.80;;;10.60;97.30;;;;;;5052405;28;20406;-87
2022/02/21 00:28:47;;;;;;;0.80;0.80;;;10.60;97.30;;;;;;5052425;28;20176;-87
2022/02/21 00:31:13;;;;;;;1.57;1.10;;;10.60;97.30;;;;;;5052747;28;20555;-87
2022/02/21 00:33:38;;;;;;;1.13;0.90;;;10.60;97.30;;;;;;5052052;28;20466;-87
2022/02/21 00:36:04;;;;;;;1.13;1.03;;;10.60;97.30;;;;;;5052796;28;20187;-87
2022/02/21 00:38:30;;;;;;;1.63;1.10;;;10.60;97.30;;;;;;5052407;28;20204;-87
2022/02/21 00:40:55;;;;;;;1.23;1.00;;;10.70;97.30;;;;;;5052677;28;20449;-87
2022/02/21 00:43:21;;;;;;;1.33;1.00;;;10.70;97.30;;;;;;5052400;28;20199;-87
2022/02/21 00:45:46;;;;;;;1.27;1.23;;;10.70;97.30;;;;;;5052554;28;20270;-87
2022/02/21 00:48:12;;;;;;;4.43;1.13;;;10.70;97.30;;;;;;5052083;28;20179;-86
2022/02/21 00:50:38;;;;;;;1.00;0.90;;;10.80;97.30;;;;;;5053276;28;20225;-87
2022/02/21 00:53:03;;;;;;;1.77;1.10;;;10.70;97.30;;;;;;5051965;28;20198;-87
2022/02/21 00:55:30;;;;;;;3.03;1.10;;;10.70;97.30;;;;;;5051986;28;20186;-86
2022/02/21 00:57:56;;;;;;;2.07;0.90;;;10.70;97.30;;;;;;5052121;28;20694;-87
2022/02/21 01:00:22;;;;;;;2.80;1.07;;;10.70;97.30;;;;;;5053804;28;20685;-86
2022/02/21 01:02:47;;;;;;;2.43;1.10;;;10.70;97.30;;;;;;5052159;28;21047;-87
2022/02/21 01:05:13;;;;;;;1.13;1.10;;;10.70;97.30;;;;;;5052103;28;20168;-87
2022/02/21 01:07:38;;;;;;;0.90;0.90;;;10.80;97.30;;;;;;5053159;28;20256;-87
2022/02/21 01:10:05;;;;;;;1.00;1.00;;;10.80;97.30;;;;;;5052364;28;20172;-87
2022/02/21 01:12:31;;;;;;;1.77;1.10;;;10.80;97.30;;;;;;5051480;28;20227;-87
2022/02/21 01:14:57;;;;;;;1.80;1.27;;;10.80;97.30;;;;;;5053031;28;20506;-87
2022/02/21 01:17:23;;;;;;;3.27;1.17;;;10.80;97.30;;;;;;5055484;28;20498;-86
2022/02/21 01:19:50;;;;;;;1.10;1.00;;;10.80;97.30;;;;;;5051385;28;20824;-86
2022/02/21 01:22:15;;;;;;;1.47;0.90;;;10.80;97.30;;;;;;5051513;28;21014;-87
2022/02/21 01:24:41;;;;;;;1.00;1.00;;;10.80;97.30;;;;;;5052886;28;20410;-87
2022/02/21 01:27:07;;;;;;;1.77;1.10;;;10.80;97.30;;;;;;5051666;28;20580;-86
2022/02/21 01:29:33;;;;;;;1.43;1.03;;;10.80;97.30;;;;;;5051469;28;20183;-87
2022/02/21 01:31:58;;;;;;;1.17;0.93;;;10.90;97.30;;;;;;5051375;28;20466;-87
2022/02/21 01:34:24;;;;;;;2.13;1.10;;;10.90;97.30;;;;;;5051428;28;20187;-86
2022/02/21 01:36:51;;;;;;;1.00;0.90;;;10.80;97.30;;;;;;5051378;28;20183;-87
2022/02/21 01:39:17;;;;;;;1.37;1.10;;;10.80;97.30;;;;;;5051267;28;20207;-87
2022/02/21 01:41:42;;;;;;;1.77;0.90;;;10.90;97.30;;;;;;5051247;28;20417;-86
2022/02/21 01:44:10;;;;;;;1.70;1.17;;;10.90;97.20;;;;;;5051152;28;20171;-86
2022/02/21 01:46:37;;;;;;;8.20;1.50;;;10.90;97.00;;;;;;5051556;28;20175;-86
2022/02/21 01:49:04;;;;;;;22.57;1.20;;;11.00;96.90;;;;;;5056992;28;20422;-86
2022/02/21 01:51:30;;;;;;;1.00;0.90;;;11.00;96.90;;;;;;5052820;28;20406;-87
2022/02/21 01:53:56;;;;;;;0.90;0.90;;;10.90;97.00;;;;;;5052709;28;20506;-87
2022/02/21 01:56:24;;;;;;;1.67;1.10;;;10.90;97.10;;;;;;5051006;28;21039;-86
2022/02/21 01:58:49;;;;;;;3.23;1.10;;;10.80;97.20;;;;;;5051145;28;20234;-87
2022/02/21 02:01:15;;;;;;;1.03;1.00;;;10.80;97.20;;;;;;5051171;28;20450;-87
2022/02/21 02:03:40;;;;;;;0.90;0.80;;;10.80;97.20;;;;;;5050857;28;20572;-87
2022/02/21 02:06:08;;;;;;;1.00;0.90;;;10.80;97.30;;;;;;5051121;28;20178;-87
2022/02/21 02:08:34;;;;;;;1.10;1.00;;;10.80;97.30;;;;;;5052121;28;20188;-88
2022/02/21 02:10:59;;;;;;;1.00;0.90;;;10.80;97.30;;;;;;5051152;28;20418;-87
2022/02/21 02:13:25;;;;;;;2.40;0.93;;;10.80;97.20;;;;;;5051060;28;20249;-87
2022/02/21 02:15:52;;;;;;;0.90;0.80;;;10.80;97.20;;;;;;5050472;28;20199;-86
2022/02/21 02:18:18;;;;;;;1.77;1.10;;;10.80;97.20;;;;;;5050612;28;20587;-86
2022/02/21 02:20:43;;;;;;;1.30;1.00;;;10.80;97.30;;;;;;5050788;28;20402;-86
2022/02/21 02:23:09;;;;;;;1.37;0.80;;;10.80;97.30;;;;;;5050758;28;20200;-87
2022/02/21 02:25:34;;;;;;;2.07;0.70;;;10.80;97.30;;;;;;5050781;28;20630;-87
2022/02/21 02:28:00;;;;;;;1.37;0.80;;;10.80;97.30;;;;;;5052096;28;20175;-87
2022/02/21 02:30:25;;;;;;;1.30;0.90;;;10.80;97.30;;;;;;5052247;28;20638;-86
2022/02/21 02:32:51;;;;;;;0.90;0.90;;;10.80;97.30;;;;;;5054583;28;20223;-86
2022/02/21 02:35:17;;;;;;;1.53;1.00;;;10.80;97.30;;;;;;5054774;28;20183;-87
2022/02/21 02:37:43;;;;;;;1.33;0.80;;;10.80;97.30;;;;;;5054783;28;20541;-87
2022/02/21 02:40:09;;;;;;;1.40;1.30;;;10.70;97.30;;;;;;5054847;28;20180;-87
2022/02/21 02:42:35;;;;;;;1.73;1.00;;;10.70;97.30;;;;;;5055813;28;20847;-87
2022/02/21 02:45:00;;;;;;;3.43;1.10;;;10.60;97.30;;;;;;5054486;28;20176;-87
2022/02/21 02:47:25;;;;;;;3.90;1.27;;;10.50;97.30;;;;;;5056489;28;20221;-89
2022/02/21 02:49:52;;;;;;;2.40;1.83;;;8.70;97.30;;;;;;5054987;28;20183;-88
2022/02/21 02:52:18;;;;;;;1.03;0.93;;;7.10;97.30;;;;;;5054321;28;20196;-88
2022/02/21 02:54:43;;;;;;;2.27;1.07;;;6.60;97.30;;;;;;5054253;28;20426;-87
2022/02/21 02:57:09;;;;;;;1.43;1.20;;;6.50;97.30;;;;;;5054518;28;20207;-87
2022/02/21 02:59:34;;;;;;;1.80;1.10;;;6.80;97.30;;;;;;5054140;28;20204;-87
2022/02/21 03:02:01;;;;;;;1.33;1.20;;;6.90;97.30;;;;;;5056024;28;20298;-88
2022/02/21 03:04:26;;;;;;;1.30;1.07;;;6.90;97.30;;;;;;5054662;28;20172;-88
2022/02/21 03:06:52;;;;;;;7.23;1.10;;;7.00;97.30;;;;;;5054188;28;20460;-87
2022/02/21 03:09:18;;;;;;;0.90;0.90;;;7.10;97.30;;;;;;5054661;28;20526;-87
2022/02/21 03:11:44;;;;;;;4.03;0.90;;;7.10;97.30;;;;;;5055603;28;20271;-87
2022/02/21 03:14:10;;;;;;;0.83;0.77;;;7.10;97.30;;;;;;5054172;28;20537;-87
2022/02/21 03:16:36;;;;;;;1.10;1.00;;;7.20;97.30;;;;;;5055149;28;20195;-88
2022/02/21 03:19:01;;;;;;;2.10;1.03;;;7.20;97.30;;;;;;5054367;28;21004;-87
2022/02/21 03:21:27;;;;;;;1.10;1.10;;;7.20;97.30;;;;;;5053682;28;20180;-87
2022/02/21 03:23:53;;;;;;;1.00;1.00;;;7.30;97.30;;;;;;5053673;28;20203;-87
2022/02/21 03:26:18;;;;;;;3.43;1.07;;;7.20;97.30;;;;;;5054029;28;20263;-87
2022/02/21 03:28:44;;;;;;;1.13;0.90;;;7.30;97.30;;;;;;5053913;28;20179;-87
2022/02/21 03:31:11;;;;;;;1.10;1.00;;;7.30;97.30;;;;;;5053864;28;20699;-87
2022/02/21 03:33:36;;;;;;;1.00;0.90;;;7.40;97.30;;;;;;5053219;28;20293;-87
2022/02/21 03:36:02;;;;;;;1.60;0.93;;;7.40;97.30;;;;;;5054495;28;20435;-86
2022/02/21 03:38:28;;;;;;;1.20;1.10;;;7.40;97.30;;;;;;5053516;28;20285;-86
2022/02/21 03:40:53;;;;;;;1.13;0.90;;;7.40;97.30;;;;;;5053163;28;20425;-87
2022/02/21 03:43:19;;;;;;;1.10;1.00;;;7.40;97.30;;;;;;5053908;28;20204;-87
2022/02/21 03:45:45;;;;;;;1.10;0.90;;;7.40;97.30;;;;;;5053284;28;20277;-87
2022/02/21 03:48:11;;;;;;;1.97;0.83;;;7.30;97.30;;;;;;5053304;28;20534;-87
2022/02/21 03:50:36;;;;;;;2.23;1.03;;;7.30;97.30;;;;;;5054922;28;20421;-86
2022/02/21 03:53:02;;;;;;;3.90;0.87;;;7.30;97.30;;;;;;5057585;28;20207;-87
2022/02/21 03:55:27;;;;;;;2.00;1.20;;;7.30;97.30;;;;;;5055215;28;20176;-87
2022/02/21 03:57:53;;;;;;;0.90;0.90;;;7.30;97.30;;;;;;5053251;28;20186;-87
2022/02/21 04:00:19;;;;;;;2.17;1.00;;;7.30;97.30;;;;;;5054049;28;20176;-87
2022/02/21 04:02:44;;;;;;;2.03;1.10;;;7.30;97.30;;;;;;5054050;28;20203;-87
2022/02/21 04:05:10;;;;;;;1.10;1.00;;;7.30;97.30;;;;;;5055632;28;20406;-87
2022/02/21 04:07:41;;;;;;;0.90;0.80;;;7.30;97.30;;;;;;5054006;28;20225;-87
2022/02/21 04:10:07;;;;;;;1.03;0.93;;;7.30;97.30;;;;;;5053959;28;20176;-87
2022/02/21 04:12:32;;;;;;;2.20;1.83;;;7.30;97.30;;;;;;5053250;28;20991;-87
2022/02/21 04:14:58;;;;;;;1.03;0.97;;;7.30;97.30;;;;;;5053055;28;20172;-86
2022/02/21 04:17:24;;;;;;;4.60;1.20;;;7.40;97.30;;;;;;5053533;28;20179;-87
2022/02/21 04:19:49;;;;;;;5.50;1.10;;;7.40;97.30;;;;;;5053723;28;21089;-86
2022/02/21 04:22:15;;;;;;;2.30;1.10;;;7.30;97.30;;;;;;5054752;28;20282;-87
2022/02/21 04:24:41;;;;;;;2.17;1.20;;;7.30;97.30;;;;;;5056235;28;20179;-86
2022/02/21 04:27:07;;;;;;;1.10;1.00;;;7.30;97.30;;;;;;5066593;28;20180;-87
2022/02/21 04:29:33;;;;;;;0.90;0.80;;;7.30;97.30;;;;;;5052586;28;20422;-86
2022/02/21 04:31:58;;;;;;;3.13;1.37;;;7.30;97.30;;;;;;5052106;28;20466;-86
2022/02/21 04:34:24;;;;;;;1.20;1.00;;;7.30;97.30;;;;;;5052244;28;20179;-87
2022/02/21 04:36:49;;;;;;;2.00;1.10;;;7.30;97.30;;;;;;5052487;28;20282;-86
2022/02/21 04:39:15;;;;;;;5.13;1.10;;;7.30;97.30;;;;;;5052480;28;20211;-87
2022/02/21 04:41:40;;;;;;;1.10;0.93;;;7.30;97.30;;;;;;5052188;28;20233;-87
2022/02/21 04:44:06;;;;;;;1.20;1.10;;;7.30;97.30;;;;;;5052471;28;20210;-87
2022/02/21 04:46:32;;;;;;;1.03;0.93;;;7.30;97.30;;;;;;5053580;28;20187;-87
2022/02/21 04:48:57;;;;;;;1.73;0.90;;;7.20;97.30;;;;;;5052187;28;20417;-87
2022/02/21 04:51:23;;;;;;;1.10;1.00;;;7.20;97.30;;;;;;5052341;28;20254;-87
2022/02/21 04:53:49;;;;;;;2.37;1.10;;;7.20;97.30;;;;;;5051529;28;20273;-87
2022/02/21 04:56:14;;;;;;;2.00;1.20;;;7.10;97.30;;;;;;5052138;28;20503;-88
2022/02/21 04:58:40;;;;;;;3.83;1.70;;;7.10;97.30;;;;;;5051926;28;20278;-88
2022/02/21 05:01:05;;;;;;;3.03;1.50;;;7.10;97.30;;;;;;5052379;28;20182;-87
2022/02/21 05:03:31;;;;;;;2.50;1.30;;;7.00;97.30;;;;;;5052331;28;20188;-88
2022/02/21 05:05:57;;;;;;;1.93;1.30;;;7.00;97.30;;;;;;5052250;28;20960;-87
2022/02/21 05:08:22;;;;;;;2.50;1.23;;;7.00;96.90;;;;;;5053389;28;20180;-87
2022/02/21 05:10:48;;;;;;;2.30;1.10;;;7.00;96.90;;;;;;5053136;28;20180;-87
2022/02/21 05:13:13;;;;;;;3.90;1.20;;;6.90;97.30;;;;;;5057944;28;20608;-88
2022/02/21 05:15:39;;;;;;;8.97;1.27;;;6.80;97.30;;;;;;5051790;28;20183;-87
2022/02/21 05:18:04;;;;;;;1.20;1.10;;;6.80;97.30;;;;;;5053003;28;20203;-87
2022/02/21 05:20:30;;;;;;;2.80;1.37;;;6.80;97.30;;;;;;5051304;28;20180;-87
2022/02/21 05:22:55;;;;;;;1.30;1.10;;;6.80;97.30;;;;;;5051683;28;20207;-87
2022/02/21 05:25:21;;;;;;;1.30;1.00;;;6.70;97.30;;;;;;5052230;28;20180;-87
2022/02/21 05:27:46;;;;;;;1.00;1.00;;;6.70;97.30;;;;;;5052911;28;20254;-86
2022/02/21 05:30:14;;;;;;;1.77;1.57;;;6.70;97.30;;;;;;5051768;28;20172;-87
2022/02/21 05:32:40;;;;;;;1.00;0.90;;;6.60;97.30;;;;;;5051876;28;20231;-87
2022/02/21 05:35:06;;;;;;;1.10;1.00;;;6.50;97.30;;;;;;5051264;28;20411;-87
2022/02/21 05:37:31;;;;;;;3.00;1.30;;;6.40;97.30;;;;;;5051528;28;20433;-87
2022/02/21 05:39:57;;;;;;;1.20;1.10;;;6.20;97.30;;;;;;5052581;28;20944;-88
2022/02/21 05:42:22;;;;;;;2.23;1.60;;;6.10;97.30;;;;;;5052607;28;20279;-87
2022/02/21 05:44:48;;;;;;;2.57;1.53;;;6.00;97.30;;;;;;5052066;28;20680;-87
2022/02/21 05:47:13;;;;;;;3.80;1.80;;;5.90;97.30;;;;;;5051981;28;20175;-87
2022/02/21 05:49:39;;;;;;;2.50;1.00;;;5.90;97.30;;;;;;5051735;28;20184;-88
2022/02/21 05:52:05;;;;;;;1.37;1.20;;;5.80;97.30;;;;;;5044268;28;20223;-87
2022/02/21 05:54:31;;;;;;;9.30;1.47;;;5.70;97.30;;;;;;5052291;28;20227;-88
2022/02/21 05:56:57;;;;;;;6.30;1.60;;;5.70;97.30;;;;;;5049938;28;20490;-87
2022/02/21 05:59:23;;;;;;;1.70;1.50;;;5.60;97.30;;;;;;5043355;28;20252;-87
2022/02/21 06:02:00;;;;;;;3.83;2.70;;;5.60;97.30;;;;;;5047613;28;20207;-88
2022/02/21 06:04:26;;;;;;;3.53;1.60;;;5.60;97.30;;;;;;5051468;28;20414;-87
2022/02/21 06:06:52;;;;;;;3.03;1.47;;;5.50;97.30;;;;;;5051762;28;20414;-87
2022/02/21 06:09:17;;;;;;;5.27;1.60;;;5.50;97.30;;;;;;5051891;28;20853;-87
2022/02/21 06:11:42;;;;;;;3.03;1.50;;;5.50;97.30;;;;;;5050962;28;20205;-88
2022/02/21 06:14:08;;;;;;;7.27;1.80;;;5.50;97.30;;;;;;5044786;28;20188;-87
2022/02/21 06:16:34;;;;;;;2.57;1.30;;;5.50;97.30;;;;;;5049475;28;20191;-87
2022/02/21 06:19:00;;;;;;;4.10;1.50;;;5.40;97.30;;;;;;5051432;28;20195;-87
2022/02/21 06:21:25;;;;;;;1.53;1.30;;;5.40;97.30;;;;;;5050904;28;20233;-87
2022/02/21 06:23:51;;;;;;;1.37;1.10;;;5.40;97.30;;;;;;5053335;28;20437;-87
2022/02/21 06:26:16;;;;;;;1.43;1.30;;;5.40;97.30;;;;;;5052806;28;20183;-87
2022/02/21 06:28:42;;;;;;;3.00;1.60;;;5.30;97.30;;;;;;5051271;28;20184;-87
2022/02/21 06:31:09;;;;;;;2.60;1.30;;;5.20;97.30;;;;;;5050987;28;20180;-87
2022/02/21 06:33:38;;;;;;;1.87;1.40;;;5.20;97.30;;;;;;5050814;28;20697;-87
2022/02/21 06:36:04;;;;;;;3.57;1.50;;;5.10;97.30;;;;;;5050918;28;20448;-87
2022/02/21 06:38:29;;;;;;;2.30;1.30;;;5.00;97.30;;;;;;5051007;28;20466;-87
2022/02/21 06:40:55;;;;;;;1.23;1.20;;;5.00;97.30;;;;;;5050878;28;20411;-87
2022/02/21 06:43:20;;;;;;;1.40;1.30;;;4.90;97.30;;;;;;5050854;28;20250;-87
2022/02/21 06:45:46;;;;;;;5.73;1.30;;;4.90;97.30;;;;;;5050876;28;20206;-87
2022/02/21 06:48:12;;;;;;;4.50;1.53;;;4.90;97.30;;;;;;5051733;28;20180;-87
2022/02/21 06:50:37;;;;;;;2.20;1.30;;;4.80;97.30;;;;;;5050654;28;20210;-86
2022/02/21 06:53:03;;;;;;;8.37;2.30;;;4.80;97.30;;;;;;5051711;28;20199;-87
2022/02/21 06:55:29;;;;;;;1.20;1.10;;;4.80;97.30;;;;;;5050963;28;20609;-87
2022/02/21 06:57:54;;;;;;;3.33;1.33;;;4.70;97.30;;;;;;5050429;28;20325;-86
2022/02/21 07:00:20;;;;;;;4.03;1.33;;;4.70;97.30;;;;;;5050760;28;20179;-86
2022/02/21 07:02:46;;;;;;;3.90;1.00;;;4.60;97.30;;;;;;5050635;28;20701;-86
2022/02/21 07:05:13;;;;;;;6.50;1.30;;;4.60;97.30;;;;;;5050539;28;20249;-87
2022/02/21 07:07:40;;;;;;;2.23;1.97;;;4.50;97.30;;;;;;5050460;28;20180;-87
2022/02/21 07:10:06;;;;;;;3.10;1.23;;;4.40;97.30;;;;;;5050126;28;20491;-87
2022/02/21 07:12:32;;;;;;;1.00;0.90;;;4.40;97.30;;;;;;5050156;28;20442;-86
2022/02/21 07:14:57;;;;;;;2.70;1.50;;;4.30;97.30;;;;;;5050471;28;20414;-87
2022/02/21 07:17:23;;;;;;;2.70;1.10;;;4.20;97.30;;;;;;5054311;28;20258;-87
2022/02/21 07:19:49;;;;;;;1.30;1.00;;;4.20;97.30;;;;;;5053606;28;20204;-87
2022/02/21 07:22:15;;;;;;;1.53;1.13;;;4.10;97.30;;;;;;5053674;28;20786;-87
2022/02/21 07:24:41;;;;;;;5.50;1.70;;;4.10;97.30;;;;;;5053926;28;20701;-87
2022/02/21 07:27:07;;;;;;;2.27;1.20;;;4.20;97.30;;;;;;5054048;28;20510;-87
2022/02/21 07:29:33;;;;;;;3.37;1.93;;;4.30;97.30;;;;;;5053954;28;20192;-86
2022/02/21 07:31:59;;;;;;;2.73;1.47;;;4.40;97.30;;;;;;5053518;28;20318;-87
2022/02/21 07:34:25;;;;;;;6.73;1.77;;;4.50;97.30;;;;;;5053474;28;20469;-87
2022/02/21 07:36:50;;;;;;;2.47;1.33;;;4.50;97.30;;;;;;5053511;28;20426;-87
2022/02/21 07:39:17;;;;;;;5.77;1.50;;;4.60;97.30;;;;;;5053912;28;20199;-87
2022/02/21 07:41:43;;;;;;;4.60;2.00;;;4.70;97.30;;;;;;5053312;28;20204;-87
2022/02/21 07:44:09;;;;;;;4.27;1.30;;;4.80;97.30;;;;;;5053750;28;20437;-87
2022/02/21 07:46:34;;;;;;;4.10;1.93;;;4.90;97.30;;;;;;5053925;28;20535;-87
2022/02/21 07:49:00;;;;;;;5.50;1.90;;;5.00;97.30;;;;;;5053764;28;20410;-87
2022/02/21 07:51:26;;;;;;;2.50;1.40;;;5.00;97.30;;;;;;5053766;28;20175;-87
2022/02/21 07:53:51;;;;;;;2.97;1.60;;;5.10;97.30;;;;;;5053220;28;20282;-87
2022/02/21 07:56:17;;;;;;;3.87;1.40;;;5.20;97.00;;;;;;5053570;28;20418;-86
2022/02/21 07:58:42;;;;;;;2.63;1.53;;;5.20;96.70;;;;;;5060420;28;20208;-87
2022/02/21 08:01:08;;;;;;;8.97;1.60;;;5.20;96.40;;;;;;5047982;28;20179;-87
2022/02/21 08:03:37;;;;;;;4.53;1.47;;;5.30;96.30;;;;;;5050343;28;20576;-86
2022/02/21 08:06:06;;;;;;;3.00;1.50;;;5.40;95.90;;;;;;5050652;28;20176;-88
2022/02/21 08:08:32;;;;;;;12.20;1.93;;;5.40;95.80;;;;;;5053127;28;20489;-88
2022/02/21 08:10:57;;;;;;;4.50;1.97;;;5.40;95.70;;;;;;5053673;28;20561;-89
2022/02/21 08:13:23;;;;;;;6.33;2.83;;;5.50;95.70;;;;;;5053022;28;20597;-89
2022/02/21 08:15:48;;;;;;;5.10;1.77;;;5.60;95.20;;;;;;5053301;28;20176;-88
2022/02/21 08:18:14;;;;;;;2.80;1.53;;;5.60;95.10;;;;;;5052571;28;20192;-88
2022/02/21 08:20:39;;;;;;;2.00;1.30;;;5.60;94.80;;;;;;5053313;28;20271;-88
2022/02/21 08:23:05;;;;;;;0.90;0.80;;;5.60;94.60;;;;;;5055510;28;20204;-89
2022/02/21 08:25:31;;;;;;;7.40;1.90;;;5.60;94.20;;;;;;5055556;28;20180;-89
2022/02/21 08:27:56;;;;;;;2.67;1.03;;;5.60;94.60;;;;;;5054255;28;20172;-88
2022/02/21 08:30:23;;;;;;;1.53;1.20;;;5.60;94.00;;;;;;5055313;28;20180;-88
2022/02/21 08:32:49;;;;;;;2.90;1.40;;;5.70;94.50;;;;;;5055052;28;20234;-88
2022/02/21 08:35:15;;;;;;;1.53;1.20;;;5.80;93.80;;;;;;5056248;28;20423;-87
2022/02/21 08:37:41;;;;;;;6.43;1.57;;;5.90;94.20;;;;;;5057757;28;20438;-88
2022/02/21 08:40:09;;;;;;;6.20;1.97;;;5.90;94.00;;;;;;5053522;28;20469;-88
2022/02/21 08:42:36;;;;;;;4.10;2.10;;;6.00;94.60;;;;;;5048239;28;20493;-87
2022/02/21 08:45:03;;;;;;;2.90;1.50;;;6.00;94.50;;;;;;5051435;28;20782;-87
2022/02/21 08:47:29;;;;;;;2.60;1.50;;;6.00;94.40;;;;;;5047619;28;20422;-88
2022/02/21 08:49:54;;;;;;;4.20;1.17;;;5.90;95.00;;;;;;5056839;28;20437;-88
2022/02/21 08:52:20;;;;;;;3.10;1.37;;;5.80;95.50;;;;;;5051901;28;20434;-88
2022/02/21 08:54:45;;;;;;;3.63;1.50;;;5.80;95.70;;;;;;5048521;28;20183;-88
2022/02/21 08:57:11;;;;;;;26.17;3.03;;;5.70;96.20;;;;;;5052855;28;20180;-88
2022/02/21 08:59:37;;;;;;;4.30;1.03;;;5.60;96.60;;;;;;5051963;28;20196;-88
2022/02/21 09:02:02;;;;;;;3.03;1.37;;;5.50;96.90;;;;;;5049609;28;20223;-89
2022/02/21 09:04:28;;;;;;;6.67;1.33;;;5.40;96.70;;;;;;5051008;28;20226;-88
2022/02/21 09:06:54;;;;;;;3.20;1.40;;;5.40;95.90;;;;;;5053011;28;20199;-88
2022/02/21 09:09:22;;;;;;;2.30;1.10;;;5.40;93.90;;;;;;5045661;28;20194;-88
2022/02/21 09:11:49;;;;;;;1.87;1.20;;;5.50;94.40;;;;;;5053771;28;20423;-87
2022/02/21 09:14:15;;;;;;;3.63;1.47;;;5.60;93.90;;;;;;5050434;28;20822;-87
2022/02/21 09:16:41;;;;;;;4.77;2.07;;;5.60;94.00;;;;;;5050597;28;20427;-87
2022/02/21 09:19:06;;;;;;;8.97;2.53;;;5.50;94.70;;;;;;5047839;28;20477;-88
2022/02/21 09:21:32;;;;;;;5.17;1.60;;;5.40;95.50;;;;;;5047004;28;20176;-87
2022/02/21 09:23:58;;;;;;;4.00;1.63;;;5.30;96.40;;;;;;5044407;28;20196;-86
2022/02/21 09:26:23;;;;;;;1.77;1.70;;;5.10;96.60;;;;;;5050085;28;20172;-86
2022/02/21 09:28:49;;;;;;;1.47;1.00;;;5.10;96.80;;;;;;5054397;28;20211;-87
2022/02/21 09:31:14;;;;;;;2.07;1.07;;;5.00;96.90;;;;;;5050287;28;20187;-89
2022/02/21 09:33:40;;;;;;;2.40;1.23;;;5.10;97.30;;;;;;5047469;28;20242;-86
2022/02/21 09:36:06;;;;;;;2.90;1.23;;;5.30;97.30;;;;;;5049394;28;20187;-87
2022/02/21 09:38:32;;;;;;;5.00;1.10;;;5.50;97.30;;;;;;5044563;28;20270;-88
2022/02/21 09:40:57;;;;;;;3.73;1.00;;;5.60;97.20;;;;;;5048655;28;20198;-87
2022/02/21 09:43:27;;;;;;;1.60;1.00;;;5.60;97.10;;;;;;5047301;28;20220;-87
2022/02/21 09:46:05;;;;;;;1.13;1.03;;;5.60;96.70;;;;;;5043549;28;20210;-88
2022/02/21 09:48:31;;;;;;;4.20;1.17;;;5.60;97.00;;;;;;5050273;28;20418;-88
2022/02/21 09:51:01;;;;;;;4.77;1.30;;;5.70;96.80;;;;;;5041429;28;20420;-87
2022/02/21 09:53:33;;;;;;;1.90;1.60;;;5.80;96.70;;;;;;5044935;28;20449;-87
2022/02/21 09:55:59;;;;;;;2.07;1.60;;;6.00;97.10;;;;;;5049917;28;20920;-87
2022/02/21 09:58:25;;;;;;;2.30;1.30;;;6.20;96.70;;;;;;5044691;28;20458;-86
2022/02/21 10:00:52;;;;;;;1.70;1.20;;;6.20;95.40;;;;;;5063295;28;20491;-88
2022/02/21 10:03:36;;;;;;;9.03;1.30;;;6.30;95.50;;;;;;5052917;28;20443;-88
2022/02/21 10:06:22;;;;;;;5.43;1.50;;;6.50;95.40;;;;;;5051770;28;20435;-87
2022/02/21 10:08:56;;;;;;;8.60;1.40;;;6.60;95.20;;;;;;5047459;28;20493;-87
2022/02/21 10:11:29;;;;;;;4.53;1.43;;;6.60;93.80;;;;;;5053262;28;20952;-87
2022/02/21 10:14:24;;;;;;;5.67;2.57;;;6.70;94.10;;;;;;5037882;28;20440;-86
2022/02/21 10:16:55;;;;;;;3.00;1.50;;;6.80;92.20;;;;;;5036864;28;20430;-87
2022/02/21 10:19:39;;;;;;;1.70;1.57;;;6.80;91.30;;;;;;5042545;28;20469;-87
2022/02/21 10:22:08;;;;;;;3.27;1.47;;;6.70;90.30;;;;;;5042509;28;20576;-88
2022/02/21 10:24:41;;;;;;;8.90;1.50;;;6.70;89.10;;;;;;5051640;28;20929;-87
2022/02/21 10:27:14;;;;;;;1.90;1.53;;;6.80;88.90;;;;;;5049827;28;20426;-87
2022/02/21 10:29:50;;;;;;;3.83;1.30;;;7.10;89.70;;;;;;5053562;28;20426;-87
2022/02/21 10:32:18;;;;;;;3.03;1.17;;;7.10;88.10;;;;;;5052430;28;20519;-87
2022/02/21 10:34:45;;;;;;;3.57;1.30;;;7.10;88.10;;;;;;5049190;28;20415;-88
2022/02/21 10:37:18;;;;;;;1.17;1.07;;;6.80;87.00;;;;;;5043707;28;20445;-87
2022/02/21 10:39:44;;;;;;;4.83;1.40;;;6.60;87.30;;;;;;5050937;28;20473;-87
2022/02/21 10:42:09;;;;;;;4.77;1.67;;;6.60;87.60;;;;;;5053110;28;20442;-87
2022/02/21 10:44:40;;;;;;;7.17;1.50;;;6.60;87.90;;;;;;5042792;28;20287;-87
2022/02/21 10:47:08;;;;;;;1.73;1.00;;;6.70;88.20;;;;;;5044734;28;20177;-86
2022/02/21 10:49:38;;;;;;;4.23;1.20;;;6.70;88.70;;;;;;5043548;28;20529;-86
2022/02/21 10:52:05;;;;;;;4.53;1.30;;;6.60;88.90;;;;;;5052919;28;20444;-87
2022/02/21 10:54:36;;;;;;;5.13;1.47;;;6.70;89.40;;;;;;5053266;28;20928;-87
2022/02/21 10:57:12;;;;;;;2.63;1.20;;;6.80;89.20;;;;;;5054473;28;20429;-86
2022/02/21 10:59:38;;;;;;;1.47;1.10;;;6.90;89.30;;;;;;5055985;28;20591;-86
2022/02/21 11:02:06;;;;;;;1.50;1.30;;;6.80;88.90;;;;;;5057546;28;20469;-87
2022/02/21 11:04:32;;;;;;;14.63;2.27;;;6.90;88.80;;;;;;5051299;28;20196;-87
2022/02/21 11:06:59;;;;;;;1.60;1.40;;;6.70;88.80;;;;;;5049528;28;20529;-87
2022/02/21 11:09:27;;;;;;;1.83;1.03;;;6.80;89.50;;;;;;5052088;28;20410;-86
2022/02/21 11:11:54;;;;;;;1.47;1.17;;;6.80;88.80;;;;;;5062580;28;20488;-87
2022/02/21 11:14:26;;;;;;;3.10;1.27;;;6.90;89.10;;;;;;5057833;28;20415;-87
2022/02/21 11:16:53;;;;;;;2.00;1.30;;;6.90;89.10;;;;;;5054456;28;20422;-87
2022/02/21 11:19:19;;;;;;;6.30;1.50;;;7.00;89.40;;;;;;5052889;28;20979;-87
2022/02/21 11:21:46;;;;;;;6.07;2.37;;;7.20;89.60;;;;;;5056964;28;20460;-87
2022/02/21 11:24:17;;;;;;;2.57;1.30;;;7.20;89.30;;;;;;5056888;28;20479;-87
2022/02/21 11:26:52;;;;;;;7.00;1.90;;;7.20;89.30;;;;;;5042213;28;20427;-87
2022/02/21 11:29:27;;;;;;;4.33;1.57;;;7.10;89.50;;;;;;5036571;28;20416;-88
2022/02/21 11:31:53;;;;;;;4.23;1.13;;;7.00;89.50;;;;;;5052474;28;20429;-88
2022/02/21 11:34:18;;;;;;;4.10;1.67;;;7.00;89.10;;;;;;5059736;28;21089;-86
2022/02/21 11:36:47;;;;;;;8.90;2.10;;;7.20;89.80;;;;;;5045768;28;20180;-87
2022/02/21 11:39:28;;;;;;;3.80;1.87;;;7.50;89.30;;;;;;5052315;28;20294;-87
2022/02/21 11:42:04;;;;;;;5.57;2.13;;;7.70;87.50;;;;;;5051917;28;20453;-87
2022/02/21 11:44:43;;;;;;;2.53;1.40;;;7.60;86.70;;;;;;5049194;28;20405;-87
2022/02/21 11:47:10;;;;;;;1.90;1.20;;;7.60;86.80;;;;;;5037705;28;20460;-88
2022/02/21 11:49:36;;;;;;;3.97;1.80;;;7.70;86.50;;;;;;5038689;28;20414;-88
2022/02/21 11:52:28;;;;;;;4.17;1.37;;;7.60;86.00;;;;;;5045883;28;20433;-88
2022/02/21 11:54:54;;;;;;;2.63;1.23;;;7.80;86.00;;;;;;5069706;28;20428;-88
2022/02/21 11:57:19;;;;;;;6.70;2.70;;;7.70;86.30;;;;;;5056196;28;20764;-87
2022/02/21 11:59:45;;;;;;;3.43;1.60;;;7.70;86.50;;;;;;5060769;28;20244;-87
2022/02/21 12:02:15;;;;;;;4.20;1.80;;;7.70;86.90;;;;;;5056977;28;20241;-86
2022/02/21 12:04:52;;;;;;;2.27;2.00;;;7.60;86.80;;;;;;5058188;28;20175;-87
2022/02/21 12:07:36;;;;;;;4.10;1.50;;;7.30;85.70;;;;;;5058721;28;20413;-88
2022/02/21 12:10:15;;;;;;;2.53;1.20;;;7.10;86.20;;;;;;5060395;28;20437;-87
2022/02/21 12:12:51;;;;;;;3.27;1.43;;;7.00;86.40;;;;;;5068146;28;20453;-87
2022/02/21 12:15:17;;;;;;;12.53;1.90;;;7.10;87.10;;;;;;5056924;28;20467;-87
2022/02/21 12:17:43;;;;;;;7.70;1.73;;;7.10;86.00;;;;;;5057465;28;20421;-86
2022/02/21 12:20:27;;;;;;;10.90;1.83;;;7.10;85.70;;;;;;5074954;28;20206;-87
2022/02/21 12:23:05;;;;;;;2.90;1.50;;;7.30;85.90;;;;;;5056299;28;20195;-86
2022/02/21 12:25:31;;;;;;;7.83;1.80;;;7.70;85.90;;;;;;5056356;28;20425;-86
2022/02/21 12:28:12;;;;;;;4.90;1.40;;;8.00;85.40;;;;;;5074403;28;20505;-87
2022/02/21 12:30:41;;;;;;;15.70;2.10;;;8.20;84.60;;;;;;5046726;28;20490;-87
2022/02/21 12:33:08;;;;;;;6.20;2.13;;;8.10;84.80;;;;;;5046585;28;20468;-87
2022/02/21 12:35:54;;;;;;;2.07;1.50;;;8.20;84.90;;;;;;5050553;28;20441;-86
2022/02/21 12:38:21;;;;;;;5.93;2.50;;;8.10;84.30;;;;;;5057595;28;20456;-86
2022/02/21 12:41:05;;;;;;;6.20;1.60;;;8.10;84.20;;;;;;5045690;28;20525;-87
2022/02/21 12:43:45;;;;;;;1.63;1.30;;;8.10;83.10;;;;;;5054759;28;20454;-86
2022/02/21 12:46:12;;;;;;;5.97;1.50;;;8.00;83.00;;;;;;5036720;28;20417;-87
2022/02/21 12:48:38;;;;;;;5.40;1.90;;;7.80;83.20;;;;;;5036999;28;20764;-87
2022/02/21 12:51:04;;;;;;;8.80;2.37;;;7.70;83.40;;;;;;5036354;28;20501;-87
2022/02/21 12:53:30;;;;;;;2.87;1.50;;;7.70;84.30;;;;;;5065038;28;20320;-86
2022/02/21 12:56:00;;;;;;;12.93;1.83;;;7.70;84.20;;;;;;5066401;28;20422;-87